Time;durP1;ratioP1;P1;durP2;ratioP2;P2;SDS_P1;SDS_P2;PMS_P1;PMS_P2;Temp;Humidity;BMP_temperature;BMP_pressure;BME280_temperature;BME280_humidity;BME280_pressure;Samples;Min_cycle;Max_cycle;Signal;HPM_P1;HPM_P2
2022/01/04 00:00:34;;;;;;;0.50;0.40;;;8.80;1.40;;;9.38;100.00;94617.16;645639;212;31520;-76
2022/01/04 00:03:24;;;;;;;0.90;0.60;;;8.60;1.40;;;9.47;100.00;94610.80;619841;222;31955;-78
2022/01/04 00:06:11;;;;;;;0.40;0.30;;;8.80;1.40;;;9.60;100.00;94600.67;643197;216;31884;-77
2022/01/04 00:09:01;;;;;;;0.40;0.20;;;8.90;1.40;;;9.79;100.00;94598.42;646322;212;31528;-78
2022/01/04 00:14:28;;;;;;;1.20;0.30;;;9.10;1.40;;;9.75;100.00;94593.58;649386;216;31467;-78
2022/01/04 00:17:10;;;;;;;0.50;0.40;;;9.10;1.40;;;9.85;100.00;94584.89;632241;222;31692;-78
2022/01/04 00:19:52;;;;;;;0.40;0.30;;;9.20;1.40;;;9.90;100.00;94583.64;648344;212;31502;-80
2022/01/04 00:22:33;;;;;;;0.80;0.30;;;9.20;1.40;;;9.95;100.00;94577.73;647813;216;31552;-78
2022/01/04 00:25:16;;;;;;;0.80;0.40;;;9.10;1.40;;;9.85;100.00;94575.15;631030;222;31699;-77
2022/01/04 00:27:58;;;;;;;0.90;0.40;;;9.00;1.40;;;9.86;100.00;94577.27;647746;216;31506;-78
2022/01/04 00:30:45;;;;;;;0.50;0.20;;;9.00;1.40;;;9.99;100.00;94572.21;647217;216;31487;-76
2022/01/04 00:35:53;;;;;;;1.40;0.30;;;9.20;1.40;;;10.04;100.00;94554.38;647058;216;31469;-76
2022/01/04 00:38:36;;;;;;;0.50;0.30;;;9.20;1.40;;;10.11;100.00;94552.52;647627;212;31500;-78
2022/01/04 00:41:18;;;;;;;0.40;0.30;;;9.30;1.40;;;9.98;100.00;94534.61;648199;216;31508;-78
2022/01/04 00:44:00;;;;;;;1.20;0.30;;;9.00;1.40;;;10.01;100.00;94535.16;621255;222;31807;-78
2022/01/04 00:46:42;;;;;;;0.60;0.30;;;9.00;1.40;;;10.13;100.00;94525.69;647993;216;31509;-77
2022/01/04 00:49:24;;;;;;;0.40;0.20;;;9.10;1.40;;;10.11;100.00;94527.44;648469;216;31482;-78
2022/01/04 00:52:06;;;;;;;0.60;0.53;;;9.10;1.40;;;10.03;100.00;94523.22;647484;214;31492;-77
2022/01/04 00:54:48;;;;;;;0.80;0.30;;;9.00;1.40;;;10.11;100.00;94522.82;648602;212;31625;-78
2022/01/04 00:57:30;;;;;;;3.90;0.50;;;8.90;1.40;;;10.05;100.00;94513.82;648118;212;31563;-78
2022/01/04 01:00:17;;;;;;;0.40;0.30;;;9.00;1.40;;;10.16;100.00;94511.13;646495;216;31531;-77
2022/01/04 01:03:05;;;;;;;0.50;0.40;;;9.20;1.40;;;10.15;100.00;94509.45;620608;222;32225;-78
2022/01/04 01:05:49;;;;;;;0.60;0.40;;;9.00;1.40;;;10.14;100.00;94503.09;644337;212;31661;-76
2022/01/04 01:08:32;;;;;;;0.70;0.20;;;9.10;1.40;;;10.17;100.00;94499.92;647847;216;31501;-79
2022/01/04 01:11:15;;;;;;;0.40;0.20;;;9.10;1.40;;;10.25;100.00;94496.59;621725;222;32503;-78
2022/01/04 01:14:01;;;;;;;0.50;0.30;;;9.30;1.40;;;10.30;100.00;94497.56;619915;222;31836;-77
2022/01/04 01:16:43;;;;;;;1.10;0.60;;;9.30;1.40;;;10.29;100.00;94499.47;620076;226;32010;-78
2022/01/04 01:19:28;;;;;;;0.40;0.20;;;9.30;1.40;;;10.38;100.00;94498.35;619735;226;32139;-78
2022/01/04 01:22:11;;;;;;;0.60;0.30;;;9.40;1.40;;;10.40;98.67;94494.53;618664;226;31814;-76
2022/01/04 01:24:59;;;;;;;0.90;0.50;;;9.40;1.40;;;10.38;99.30;94493.16;618452;225;31958;-77
2022/01/04 01:27:47;;;;;;;1.40;0.50;;;9.40;1.40;;;10.55;96.31;94496.67;647282;216;31538;-76
2022/01/04 01:30:34;;;;;;;0.50;0.30;;;9.60;1.40;;;10.65;94.46;94492.84;649492;216;31524;-79
2022/01/04 01:35:53;;;;;;;0.40;0.20;;;9.70;1.40;;;10.62;97.54;94479.78;646793;212;31592;-75
2022/01/04 01:38:36;;;;;;;0.90;0.50;;;9.70;1.40;;;10.63;97.15;94470.06;647073;212;31554;-77
2022/01/04 01:41:24;;;;;;;0.40;0.20;;;9.70;1.40;;;10.85;93.78;94467.95;647174;216;32199;-75
2022/01/04 01:44:06;;;;;;;0.40;0.30;;;10.00;1.40;;;10.83;95.25;94455.55;648697;216;32044;-77
2022/01/04 01:46:55;;;;;;;0.40;0.30;;;9.80;1.40;;;10.88;94.08;94443.06;647332;216;31481;-78
2022/01/04 01:49:39;;;;;;;0.70;0.40;;;10.00;1.40;;;10.91;94.05;94436.03;645225;216;31491;-75
2022/01/04 01:52:23;;;;;;;1.30;0.60;;;10.00;1.40;;;10.81;94.88;94430.63;647908;212;31947;-78
2022/01/04 01:55:10;;;;;;;0.70;0.60;;;9.90;1.40;;;10.84;93.98;94415.80;645753;212;31524;-77
2022/01/04 01:57:58;;;;;;;0.50;0.40;;;9.90;1.40;;;10.79;97.50;94411.30;649288;216;31496;-78
2022/01/04 02:00:39;;;;;;;1.50;0.30;;;9.70;1.40;;;10.65;99.43;94408.14;647802;212;31500;-78
2022/01/04 02:03:22;;;;;;;0.80;0.80;;;9.50;1.40;;;10.61;98.18;94400.56;648283;216;31662;-78
2022/01/04 02:06:09;;;;;;;1.10;0.40;;;9.60;1.40;;;10.56;99.37;94387.02;629308;217;31823;-79
2022/01/04 02:08:53;;;;;;;0.60;0.30;;;9.50;1.40;;;10.74;96.08;94382.81;648523;212;31680;-76
2022/01/04 02:11:35;;;;;;;0.60;0.30;;;9.80;1.40;;;10.76;96.85;94382.08;646411;216;31615;-76
2022/01/04 02:14:24;;;;;;;2.50;0.40;;;9.70;1.40;;;10.84;95.30;94372.56;646812;212;32055;-79
2022/01/04 02:17:11;;;;;;;0.50;0.23;;;9.90;1.40;;;10.77;96.77;94365.41;619364;226;32068;-76
2022/01/04 02:19:58;;;;;;;0.40;0.20;;;9.80;1.40;;;10.79;97.12;94368.14;647966;216;31517;-78
2022/01/04 02:22:43;;;;;;;0.70;0.40;;;9.70;1.40;;;10.81;97.01;94365.00;645412;216;31745;-75
2022/01/04 02:25:31;;;;;;;1.00;0.30;;;9.80;1.40;;;10.83;97.56;94356.16;643108;219;31518;-78
2022/01/04 02:28:12;;;;;;;0.70;0.30;;;9.70;1.40;;;10.68;97.43;94353.66;648189;216;31513;-78
2022/01/04 02:30:54;;;;;;;0.50;0.30;;;9.70;1.40;;;10.76;97.19;94346.53;648327;212;32043;-78
2022/01/04 02:35:51;;;;;;;0.40;0.20;;;9.80;1.40;;;10.66;100.00;94331.59;646323;216;31497;-77
2022/01/04 02:38:37;;;;;;;0.40;0.30;;;9.70;1.40;;;10.51;100.00;94323.64;647414;216;42148;-78
2022/01/04 02:41:18;;;;;;;0.40;0.30;;;9.60;1.40;;;10.71;98.61;94311.98;646891;216;31506;-78
2022/01/04 02:44:00;;;;;;;0.40;0.30;;;10.00;1.40;;;10.83;97.06;94302.40;621198;226;32044;-78
2022/01/04 02:46:41;;;;;;;1.20;0.20;;;9.90;1.40;;;10.81;97.69;94295.17;620288;225;42986;-77
2022/01/04 02:49:23;;;;;;;0.40;0.20;;;9.90;1.40;;;10.78;97.91;94284.86;647700;212;31500;-77
2022/01/04 02:52:05;;;;;;;0.40;0.30;;;9.90;1.40;;;10.83;96.72;94285.20;646318;216;32092;-77
2022/01/04 02:54:47;;;;;;;0.40;0.23;;;10.00;1.40;;;10.78;97.73;94276.89;649111;216;31494;-76
2022/01/04 03:00:09;;;;;;;0.70;0.30;;;9.90;1.40;;;10.82;95.47;94259.44;648247;212;31526;-78
2022/01/04 03:02:50;;;;;;;0.40;0.20;;;9.90;1.40;;;10.83;96.02;94256.36;643333;214;36773;-78
2022/01/04 03:05:32;;;;;;;0.40;0.20;;;9.90;1.40;;;10.79;96.12;94250.99;648036;216;42097;-77
2022/01/04 03:08:15;;;;;;;1.00;0.30;;;9.90;1.40;;;10.81;96.77;94256.83;619075;226;31822;-77
2022/01/04 03:11:00;;;;;;;0.60;0.30;;;9.80;1.40;;;11.00;94.92;94246.12;620278;222;43129;-78
2022/01/04 03:13:41;;;;;;;0.40;0.20;;;10.10;1.40;;;10.90;97.11;94245.98;647157;212;32116;-77
2022/01/04 03:16:23;;;;;;;0.40;0.30;;;10.00;1.40;;;10.78;97.75;94235.90;647185;212;31499;-78
2022/01/04 03:19:11;;;;;;;0.40;0.30;;;9.90;1.40;;;10.75;98.47;94227.21;647101;212;31485;-75
2022/01/04 03:21:52;;;;;;;0.40;0.20;;;9.90;1.40;;;10.81;98.06;94219.33;647384;216;31721;-75
2022/01/04 03:24:38;;;;;;;0.40;0.20;;;9.90;1.40;;;10.83;97.14;94213.00;646715;216;42098;-77
2022/01/04 03:27:25;;;;;;;0.40;0.20;;;9.90;1.40;;;10.86;95.96;94204.66;646537;212;31692;-75
2022/01/04 03:30:13;;;;;;;1.40;0.30;;;10.00;1.40;;;10.97;95.83;94198.50;647409;216;31804;-78
2022/01/04 03:32:55;;;;;;;0.40;0.30;;;10.00;1.40;;;11.05;94.21;94196.21;647023;216;31707;-79
2022/01/04 03:35:52;;;;;;;0.80;0.40;;;10.20;1.40;;;11.07;95.73;94194.52;648154;216;31505;-78
2022/01/04 03:38:36;;;;;;;0.50;0.20;;;10.10;1.40;;;11.04;96.41;94187.41;646514;216;42716;-75
2022/01/04 03:41:24;;;;;;;0.40;0.30;;;10.10;1.40;;;10.95;96.62;94168.91;642759;217;31482;-78
2022/01/04 03:44:07;;;;;;;0.50;0.30;;;9.70;1.40;;;10.89;96.63;94158.24;619259;222;31843;-78
2022/01/04 03:46:56;;;;;;;0.40;0.20;;;9.80;1.40;;;10.94;95.44;94154.10;646879;216;31876;-77
2022/01/04 03:49:43;;;;;;;0.40;0.30;;;10.00;1.40;;;10.96;95.05;94155.21;636664;217;31860;-77
2022/01/04 03:52:25;;;;;;;0.50;0.40;;;10.10;1.40;;;10.82;98.76;94152.16;647134;212;32156;-78
2022/01/04 03:55:13;;;;;;;0.40;0.20;;;9.80;1.40;;;10.83;96.96;94147.66;645437;216;31479;-75
2022/01/04 03:58:00;;;;;;;0.40;0.30;;;10.00;1.40;;;10.92;96.45;94132.48;647738;216;31478;-78
2022/01/04 04:00:45;;;;;;;1.00;0.40;;;10.00;1.40;;;10.80;98.51;94125.17;620808;222;31956;-77
2022/01/04 04:03:27;;;;;;;0.70;0.40;;;9.80;1.40;;;10.80;98.85;94116.55;619289;226;42565;-77
2022/01/04 04:06:08;;;;;;;0.73;0.30;;;9.80;1.40;;;10.84;96.92;94113.09;641188;216;31647;-77
2022/01/04 04:08:51;;;;;;;3.30;0.60;;;9.90;1.40;;;10.87;97.67;94113.64;647719;216;42095;-77
2022/01/04 04:11:33;;;;;;;0.40;0.20;;;9.90;1.40;;;10.73;99.62;94112.77;648196;216;42107;-78
2022/01/04 04:14:14;;;;;;;0.70;0.40;;;9.80;1.40;;;10.56;100.00;94107.37;647927;212;42543;-78
2022/01/04 04:17:03;;;;;;;0.40;0.30;;;9.80;1.40;;;10.54;100.00;94101.95;646889;216;42261;-75
2022/01/04 04:19:50;;;;;;;0.40;0.20;;;9.70;1.40;;;10.49;100.00;94096.61;647268;212;42114;-78
2022/01/04 04:25:08;;;;;;;1.20;0.30;;;9.50;1.40;;;10.34;100.00;94092.50;618627;222;32553;-79
2022/01/04 04:27:50;;;;;;;0.60;0.30;;;9.50;1.40;;;10.30;100.00;94089.12;648358;216;31507;-78
2022/01/04 04:30:32;;;;;;;0.40;0.20;;;9.50;1.40;;;10.11;100.00;94085.41;648428;212;31549;-78
2022/01/04 04:35:57;;;;;;;0.40;0.30;;;9.30;1.40;;;9.85;100.00;94069.13;646827;216;31512;-78
2022/01/04 04:38:39;;;;;;;0.40;0.30;;;9.10;1.40;;;9.81;100.00;94062.91;620019;225;31865;-79
2022/01/04 04:41:21;;;;;;;0.40;0.30;;;9.10;1.40;;;9.80;100.00;94062.17;620826;222;31805;-79
2022/01/04 04:44:03;;;;;;;0.50;0.30;;;9.20;1.40;;;9.79;100.00;94065.81;648043;216;42083;-79
2022/01/04 04:46:45;;;;;;;0.45;0.20;;;9.20;1.40;;;9.79;100.00;94055.30;647267;212;31529;-79
2022/01/04 04:49:28;;;;;;;0.40;0.20;;;9.20;1.40;;;9.91;100.00;94046.16;646852;216;31493;-76
2022/01/04 04:52:12;;;;;;;0.60;0.40;;;9.30;1.40;;;9.96;100.00;94050.77;648374;216;31508;-78
2022/01/04 04:54:54;;;;;;;0.40;0.20;;;9.40;1.40;;;9.98;100.00;94050.09;647584;216;31654;-79
2022/01/04 04:57:42;;;;;;;0.50;0.30;;;9.30;1.40;;;9.95;100.00;94045.23;645315;216;31674;-76
2022/01/04 05:00:29;;;;;;;0.50;0.30;;;9.30;1.40;;;9.86;100.00;94047.98;647558;216;31551;-79
2022/01/04 05:03:13;;;;;;;1.20;0.30;;;9.10;1.40;;;9.85;100.00;94040.70;645660;216;31502;-75
2022/01/04 05:06:01;;;;;;;0.40;0.30;;;9.00;1.40;;;9.82;100.00;94045.06;615225;225;31988;-79
2022/01/04 05:08:48;;;;;;;0.50;0.40;;;8.90;1.40;;;9.85;100.00;94045.50;646161;216;31510;-76
2022/01/04 05:11:36;;;;;;;0.40;0.20;;;8.90;1.40;;;9.79;100.00;94046.94;647022;216;31487;-78
2022/01/04 05:14:18;;;;;;;0.60;0.30;;;8.80;1.40;;;9.69;100.00;94037.80;647346;216;31492;-79
2022/01/04 05:17:05;;;;;;;0.50;0.30;;;8.80;1.40;;;9.57;100.00;94028.14;647846;212;31490;-76
2022/01/04 05:22:28;;;;;;;0.60;0.40;;;8.80;1.40;;;9.44;100.00;94032.25;648617;216;31480;-78
2022/01/04 05:25:09;;;;;;;0.40;0.30;;;8.70;1.40;;;9.23;100.00;94027.13;619385;226;31957;-77
2022/01/04 05:27:58;;;;;;;0.90;0.30;;;8.50;1.40;;;9.08;100.00;94023.23;647377;212;31532;-76
2022/01/04 05:30:46;;;;;;;0.70;0.60;;;8.30;1.40;;;8.86;100.00;94025.56;647173;216;32065;-78
2022/01/04 05:35:53;;;;;;;0.80;0.70;;;8.00;1.40;;;8.65;100.00;94022.54;648045;212;31487;-78
2022/01/04 05:38:33;;;;;;;0.50;0.30;;;7.90;1.40;;;8.56;100.00;94018.99;620043;226;42484;-78
2022/01/04 05:41:20;;;;;;;0.40;0.37;;;7.80;1.40;;;8.53;100.00;94022.48;646499;216;32041;-77
2022/01/04 05:44:08;;;;;;;0.60;0.43;;;7.70;1.40;;;8.41;100.00;94022.46;645806;212;31536;-76
2022/01/04 05:46:50;;;;;;;0.40;0.20;;;7.50;1.40;;;8.27;100.00;94020.17;648178;216;31581;-76
2022/01/04 05:49:31;;;;;;;0.40;0.20;;;7.50;1.40;;;8.19;100.00;94013.77;647195;216;32114;-77
2022/01/04 05:52:13;;;;;;;0.40;0.30;;;7.40;1.40;;;8.19;100.00;94018.07;620115;226;32389;-75
2022/01/04 05:54:55;;;;;;;0.40;0.30;;;7.30;1.40;;;8.14;100.00;94022.77;647438;216;31493;-76
2022/01/04 05:57:37;;;;;;;0.60;0.40;;;7.20;1.40;;;8.22;100.00;94021.31;649218;212;31729;-75
2022/01/04 06:00:19;;;;;;;0.40;0.20;;;7.20;1.40;;;8.38;100.00;94027.06;646910;216;31505;-75
2022/01/04 06:03:03;;;;;;;1.30;0.30;;;7.20;1.40;;;8.48;100.00;94029.02;648552;212;31944;-78
2022/01/04 06:05:45;;;;;;;0.70;0.40;;;7.20;1.40;;;8.50;100.00;94029.74;642068;212;32261;-75
2022/01/04 06:08:35;;;;;;;0.50;0.30;;;7.30;1.40;;;8.58;100.00;94024.74;647153;216;32194;-78
2022/01/04 06:11:28;;;;;;;0.50;0.40;;;7.20;1.40;;;8.57;100.00;94023.55;641415;214;31640;-75
2022/01/04 06:16:42;;;;;;;1.30;0.70;;;7.00;1.40;;;8.49;100.00;94025.22;647515;212;31682;-76
2022/01/04 06:19:23;;;;;;;0.43;0.43;;;7.00;1.40;;;8.19;100.00;94020.17;641339;218;31523;-78
2022/01/04 06:22:05;;;;;;;0.50;0.30;;;6.90;1.40;;;8.17;100.00;94010.51;647532;212;42748;-77
2022/01/04 06:24:47;;;;;;;0.80;0.60;;;6.90;1.40;;;8.01;100.00;93997.71;647614;212;31644;-76
2022/01/04 06:27:29;;;;;;;0.40;0.20;;;6.90;1.40;;;8.09;100.00;94011.50;647876;212;31488;-76
2022/01/04 06:30:11;;;;;;;0.40;0.30;;;6.90;1.40;;;8.11;100.00;94001.55;618402;222;32445;-76
2022/01/04 06:32:53;;;;;;;0.40;0.30;;;7.20;1.40;;;8.04;100.00;94001.47;648238;216;31467;-73
2022/01/04 06:35:57;;;;;;;0.40;0.30;;;7.30;1.40;;;8.03;100.00;93987.91;645432;212;31532;-76
2022/01/04 06:38:39;;;;;;;1.00;0.50;;;7.50;1.40;;;8.04;100.00;93971.51;618936;222;31865;-79
2022/01/04 06:41:21;;;;;;;1.90;0.50;;;7.50;1.40;;;8.09;100.00;93971.50;646791;216;31524;-76
2022/01/04 06:44:03;;;;;;;0.40;0.40;;;7.60;1.40;;;8.25;100.00;93967.27;647289;212;31498;-77
2022/01/04 06:46:46;;;;;;;0.40;0.20;;;7.90;1.40;;;8.19;100.00;93963.39;618884;222;31889;-76
2022/01/04 06:49:33;;;;;;;0.40;0.20;;;7.70;1.40;;;8.17;100.00;93966.20;648744;216;31769;-78
2022/01/04 06:52:21;;;;;;;0.60;0.30;;;7.50;1.40;;;8.18;100.00;93965.41;647115;216;31495;-76
2022/01/04 06:55:03;;;;;;;0.50;0.30;;;7.60;1.40;;;8.19;100.00;93961.78;646565;216;31501;-76
2022/01/04 06:59:14;;;;;;;0.30;0.20;;;7.70;1.40;;;8.16;100.00;93960.00;646838;216;31493;-80
2022/01/04 07:01:57;;;;;;;0.40;0.20;;;7.50;1.40;;;8.18;100.00;93965.37;646017;216;31549;-76
2022/01/04 07:04:39;;;;;;;0.40;0.30;;;7.40;1.40;;;8.12;100.00;93965.47;645693;216;31482;-76
2022/01/04 07:07:21;;;;;;;0.40;0.20;;;7.30;1.40;;;8.16;100.00;93968.78;638104;216;31622;-76
2022/01/04 07:12:37;;;;;;;0.40;0.20;;;7.50;1.40;;;8.42;100.00;93966.70;645900;212;31684;-76
2022/01/04 07:17:53;;;;;;;0.40;0.20;;;7.70;1.40;;;8.59;100.00;93956.25;646903;212;31463;-75
2022/01/04 07:20:36;;;;;;;0.60;0.37;;;7.90;1.40;;;8.65;100.00;93950.87;620098;222;31996;-77
2022/01/04 07:23:18;;;;;;;0.40;0.20;;;8.00;1.40;;;8.78;100.00;93944.63;647985;216;31558;-77
2022/01/04 07:26:06;;;;;;;0.40;0.30;;;8.20;1.40;;;8.84;100.00;93930.32;646759;212;31507;-75
2022/01/04 07:28:49;;;;;;;0.40;0.40;;;8.10;1.40;;;8.89;100.00;93923.70;647297;216;31502;-77
2022/01/04 07:31:33;;;;;;;0.40;0.20;;;8.30;1.40;;;9.01;100.00;93922.34;619135;226;31850;-76
2022/01/04 07:35:57;;;;;;;0.40;0.30;;;8.30;1.40;;;8.95;100.00;93919.59;646741;216;31480;-77
2022/01/04 07:38:39;;;;;;;0.40;0.20;;;8.40;1.40;;;8.92;100.00;93905.81;646237;216;31522;-77
2022/01/04 07:41:20;;;;;;;1.60;0.30;;;8.30;1.40;;;8.99;100.00;93897.05;619482;226;31951;-76
2022/01/04 07:44:08;;;;;;;0.40;0.30;;;8.30;1.40;;;8.98;100.00;93889.33;619263;226;31824;-78
2022/01/04 07:46:50;;;;;;;0.40;0.30;;;8.40;1.40;;;9.04;100.00;93895.66;647060;212;31508;-77
2022/01/04 07:49:32;;;;;;;0.40;0.30;;;8.40;1.40;;;8.96;100.00;93882.63;633898;221;31681;-78
2022/01/04 07:52:13;;;;;;;0.40;0.20;;;8.30;1.40;;;9.03;100.00;93882.55;621000;222;32439;-78
2022/01/04 07:55:38;;;;;;;0.40;0.20;;;8.50;1.40;;;9.12;100.00;93867.52;646423;216;31628;-77
2022/01/04 07:58:26;;;;;;;0.40;0.30;;;8.30;1.40;;;9.13;100.00;93871.70;649466;216;31489;-79
2022/01/04 08:01:07;;;;;;;0.40;0.30;;;8.70;1.40;;;9.11;100.00;93860.89;647784;212;31501;-78
2022/01/04 08:03:49;;;;;;;0.40;0.20;;;8.70;1.40;;;9.32;100.00;93855.43;647136;212;31491;-79
2022/01/04 08:06:31;;;;;;;0.40;0.20;;;8.80;1.40;;;9.40;100.00;93858.02;612736;226;31982;-78
2022/01/04 08:09:12;;;;;;;0.43;0.23;;;8.70;1.40;;;9.71;100.00;93848.75;619859;226;32361;-77
2022/01/04 08:11:54;;;;;;;0.40;0.20;;;9.10;1.40;;;9.91;100.00;93842.17;646968;212;31534;-78
2022/01/04 08:14:38;;;;;;;0.40;0.20;;;9.30;1.40;;;10.11;100.00;93839.50;643403;216;32101;-77
2022/01/04 08:17:27;;;;;;;0.40;0.20;;;9.50;1.40;;;10.16;100.00;93829.66;646946;212;31518;-76
2022/01/04 08:20:17;;;;;;;0.40;0.20;;;9.60;1.40;;;10.28;100.00;93823.62;647234;216;31425;-79
2022/01/04 08:22:57;;;;;;;0.50;0.30;;;9.60;1.40;;;10.31;100.00;93817.80;620560;226;31820;-79
2022/01/04 08:25:41;;;;;;;0.40;0.30;;;9.70;1.40;;;10.33;100.00;93807.24;621553;222;31994;-79
2022/01/04 08:28:28;;;;;;;0.40;0.20;;;9.60;1.40;;;10.40;100.00;93810.61;645890;215;31503;-76
2022/01/04 08:31:14;;;;;;;0.40;0.20;;;9.80;1.40;;;10.40;100.00;93807.73;619673;222;31821;-76
2022/01/04 08:35:52;;;;;;;0.40;0.20;;;9.90;1.40;;;10.45;100.00;93797.37;647863;212;31533;-79
2022/01/04 08:38:34;;;;;;;0.90;0.30;;;9.90;1.40;;;10.52;100.00;93791.92;648154;212;32053;-78
2022/01/04 08:41:16;;;;;;;0.43;0.20;;;9.80;1.40;;;10.53;100.00;93784.81;647517;212;31500;-77
2022/01/04 08:44:04;;;;;;;0.40;0.30;;;9.90;1.40;;;10.59;100.00;93779.31;646233;212;42148;-75
2022/01/04 08:49:31;;;;;;;0.40;0.22;;;10.10;1.40;;;10.73;100.00;93765.01;645905;216;31750;-76
2022/01/04 08:52:15;;;;;;;0.40;0.20;;;10.30;1.40;;;10.78;100.00;93758.03;647271;212;31432;-77
2022/01/04 08:54:56;;;;;;;0.40;0.20;;;10.40;1.40;;;10.87;100.00;93756.06;648686;216;32127;-78
2022/01/04 08:57:44;;;;;;;0.40;0.30;;;10.50;1.40;;;10.93;100.00;93755.87;647062;216;31516;-76
2022/01/04 09:00:26;;;;;;;0.40;0.20;;;10.50;1.40;;;11.03;100.00;93744.08;647115;212;42131;-75
2022/01/04 09:03:10;;;;;;;0.70;0.30;;;10.60;1.40;;;11.19;100.00;93732.91;646865;216;42926;-76
2022/01/04 09:05:52;;;;;;;0.40;0.30;;;10.80;1.40;;;11.26;100.00;93732.02;642055;216;32196;-78
2022/01/04 09:11:17;;;;;;;0.40;0.20;;;10.70;1.40;;;11.32;100.00;93724.30;647963;212;32272;-78
2022/01/04 09:19:50;;;;;;;0.40;0.20;;;11.20;1.40;;;11.86;100.00;93723.78;645705;212;42714;-76
2022/01/04 09:22:38;;;;;;;0.40;0.20;;;11.30;1.40;;;12.07;100.00;93727.19;648337;216;31470;-78
2022/01/04 09:25:26;;;;;;;0.40;0.20;;;11.40;1.40;;;12.29;100.00;93727.03;645735;216;31528;-76
2022/01/04 09:28:11;;;;;;;0.40;0.20;;;11.50;1.40;;;12.50;100.00;93726.25;647066;212;32751;-77
2022/01/04 09:30:59;;;;;;;0.40;0.30;;;11.80;1.40;;;12.75;100.00;93719.44;643865;215;31431;-81
2022/01/04 09:35:56;;;;;;;0.40;0.20;;;12.20;1.40;;;13.01;100.00;93722.95;646449;216;31485;-77
2022/01/04 09:38:38;;;;;;;0.40;0.20;;;12.20;1.40;;;13.25;100.00;93711.55;646589;216;31607;-76
2022/01/04 09:41:23;;;;;;;0.50;0.40;;;12.40;1.40;;;13.31;100.00;93709.18;646858;216;31536;-77
2022/01/04 09:44:11;;;;;;;0.40;0.20;;;12.40;1.40;;;13.38;100.00;93707.70;619635;222;31836;-79
2022/01/04 09:46:53;;;;;;;0.50;0.30;;;12.50;1.40;;;13.35;100.00;93705.48;648043;216;31482;-81
2022/01/04 09:49:41;;;;;;;0.50;0.30;;;12.40;1.40;;;13.40;100.00;93700.53;618365;226;33604;-77
2022/01/04 09:52:29;;;;;;;2.40;0.60;;;12.50;1.40;;;13.37;100.00;93704.81;643568;216;31473;-82
2022/01/04 09:55:13;;;;;;;0.40;0.30;;;12.40;1.40;;;13.41;100.00;93696.77;617613;224;32378;-81
2022/01/04 09:57:55;;;;;;;0.40;0.30;;;12.60;1.40;;;13.37;100.00;93702.45;646245;215;34884;-77
2022/01/04 10:00:36;;;;;;;0.40;0.30;;;12.50;1.40;;;13.12;100.00;93694.52;646379;216;31455;-77
2022/01/04 10:03:28;;;;;;;0.53;0.30;;;12.20;1.40;;;13.01;100.00;93690.80;648578;216;31486;-80
2022/01/04 10:06:15;;;;;;;0.40;0.30;;;12.30;1.40;;;13.13;100.00;93684.27;642173;216;31662;-76
2022/01/04 10:09:00;;;;;;;0.40;0.30;;;12.40;1.40;;;13.31;100.00;93689.37;646628;212;33246;-76
2022/01/04 10:11:43;;;;;;;0.50;0.30;;;12.60;1.40;;;13.48;100.00;93678.66;646941;216;31964;-77
2022/01/04 10:14:33;;;;;;;0.40;0.30;;;12.70;1.40;;;13.69;100.00;93675.53;646547;216;31480;-78
2022/01/04 10:17:14;;;;;;;0.40;0.20;;;12.90;1.40;;;13.86;100.00;93663.86;647645;216;31508;-76
2022/01/04 10:20:02;;;;;;;0.40;0.20;;;12.90;1.40;;;13.93;100.00;93663.19;621138;222;32134;-82
2022/01/04 10:22:50;;;;;;;0.40;0.20;;;13.00;1.40;;;13.94;100.00;93663.58;645628;216;31489;-77
2022/01/04 10:25:31;;;;;;;0.60;0.40;;;12.90;1.40;;;14.04;100.00;93656.52;646960;212;32592;-76
2022/01/04 10:28:44;;;;;;;0.40;0.20;;;13.10;1.40;;;14.25;100.00;93653.16;647952;216;31868;-80
2022/01/04 10:31:26;;;;;;;0.50;0.30;;;13.40;1.40;;;14.20;100.00;93647.61;621563;222;32343;-80
2022/01/04 10:35:51;;;;;;;0.40;0.30;;;13.20;1.40;;;14.14;100.00;93645.06;647042;216;31739;-76
2022/01/04 10:38:33;;;;;;;0.40;0.30;;;13.20;1.40;;;14.13;100.00;93642.09;645764;216;42944;-76
2022/01/04 10:41:21;;;;;;;0.40;0.30;;;13.10;1.40;;;14.12;100.00;93632.36;646850;216;31454;-77
2022/01/04 10:44:04;;;;;;;0.40;0.30;;;13.10;1.40;;;14.28;100.00;93635.17;620556;222;42439;-76
2022/01/04 10:46:53;;;;;;;0.52;0.30;;;13.30;1.40;;;14.29;100.00;93640.03;646049;216;31643;-76
2022/01/04 10:49:41;;;;;;;0.40;0.22;;;13.30;1.40;;;14.21;100.00;93630.59;647789;216;42116;-78
2022/01/04 10:52:31;;;;;;;0.40;0.30;;;13.20;1.40;;;14.43;100.00;93618.05;645057;216;32739;-77
2022/01/04 10:55:13;;;;;;;0.40;0.20;;;13.50;1.40;;;14.23;100.00;93614.34;646699;212;31544;-78
2022/01/04 10:57:55;;;;;;;0.70;0.30;;;13.30;1.40;;;14.35;100.00;93609.36;645880;216;31491;-77
2022/01/04 11:00:43;;;;;;;0.40;0.20;;;13.40;1.40;;;14.39;100.00;93604.08;648084;212;31612;-80
2022/01/04 11:03:31;;;;;;;0.73;0.37;;;13.50;1.40;;;14.54;100.00;93607.44;646995;212;42118;-78
2022/01/04 11:06:25;;;;;;;0.60;0.40;;;13.60;1.40;;;14.81;100.00;93590.44;618343;226;42824;-77
2022/01/04 11:09:12;;;;;;;1.60;0.32;;;13.90;1.40;;;15.02;100.00;93589.70;647275;216;42114;-80
2022/01/04 11:12:00;;;;;;;0.40;0.30;;;14.20;1.40;;;15.12;99.67;93588.91;646618;216;31492;-77
2022/01/04 11:14:45;;;;;;;0.40;0.20;;;14.30;1.40;;;15.26;98.69;93590.34;646839;212;42184;-77
2022/01/04 11:17:26;;;;;;;0.40;0.20;;;14.40;1.40;;;15.30;96.88;93578.45;644824;216;35734;-77
2022/01/04 11:20:11;;;;;;;0.40;0.20;;;14.50;1.40;;;15.38;96.77;93581.22;648028;212;31463;-79
2022/01/04 11:22:53;;;;;;;0.55;0.30;;;14.50;1.40;;;15.39;97.48;93580.72;620890;222;31942;-81
2022/01/04 11:25:40;;;;;;;0.50;0.25;;;14.60;1.40;;;15.69;94.13;93565.23;645618;216;31550;-76
2022/01/04 11:28:24;;;;;;;0.65;0.40;;;14.90;1.40;;;15.75;92.83;93557.66;647786;216;31590;-78
2022/01/04 11:35:54;;;;;;;0.50;0.20;;;14.90;1.40;;;15.84;89.78;93543.63;619308;226;31853;-80
2022/01/04 11:38:38;;;;;;;0.40;0.30;;;14.90;1.40;;;15.78;89.45;93534.48;619430;226;31917;-77
2022/01/04 11:41:26;;;;;;;1.00;0.30;;;14.90;1.40;;;15.83;89.89;93542.56;619563;222;31810;-79
2022/01/04 11:44:18;;;;;;;0.40;0.30;;;14.90;1.40;;;15.98;89.25;93541.12;649009;212;31487;-81
2022/01/04 11:47:06;;;;;;;0.60;0.30;;;15.20;1.40;;;16.47;85.42;93524.13;647319;216;31470;-79
2022/01/04 11:50:15;;;;;;;0.60;0.30;;;16.20;1.40;;;17.00;82.78;93514.20;646221;216;31474;-77
2022/01/04 11:52:56;;;;;;;0.40;0.30;;;16.50;1.40;;;16.80;82.85;93503.67;646023;216;31467;-77
2022/01/04 11:55:38;;;;;;;1.15;0.52;;;15.70;1.40;;;16.48;82.98;93498.89;618234;226;31819;-77
2022/01/04 12:08:52;;;;;;;0.70;0.50;;;15.70;1.40;;;16.67;80.66;93477.09;620725;222;31808;-80
2022/01/04 12:11:40;;;;;;;0.60;0.30;;;16.00;1.40;;;16.73;81.00;93462.39;646473;212;31468;-77
2022/01/04 12:14:28;;;;;;;0.80;0.50;;;16.10;1.40;;;16.86;80.83;93460.42;648018;216;31479;-81
2022/01/04 12:17:15;;;;;;;0.77;0.40;;;16.10;1.40;;;16.87;78.50;93479.16;646611;216;42107;-78
2022/01/04 12:19:58;;;;;;;0.50;0.30;;;16.10;1.40;;;16.80;79.40;93468.78;618820;226;42650;-78
2022/01/04 12:22:40;;;;;;;0.40;0.30;;;16.00;1.40;;;16.98;77.51;93470.16;646745;216;31495;-76
2022/01/04 12:25:22;;;;;;;0.60;0.40;;;16.20;1.40;;;16.99;77.51;93467.68;646121;212;31470;-78
2022/01/04 12:28:15;;;;;;;0.50;0.40;;;16.30;1.40;;;17.10;75.54;93450.93;645965;216;31594;-76
2022/01/04 12:31:32;;;;;;;1.60;0.30;;;16.30;1.40;;;17.13;77.50;93465.96;647928;212;42464;-81
2022/01/04 12:35:54;;;;;;;0.40;0.30;;;16.50;1.40;;;17.34;76.03;93437.59;619269;226;31889;-76
2022/01/04 12:38:35;;;;;;;0.73;0.30;;;16.70;1.40;;;17.29;76.68;93470.89;645959;216;31500;-77
2022/01/04 12:41:17;;;;;;;0.70;0.40;;;16.60;1.40;;;17.27;76.49;93455.70;619844;226;31890;-77
2022/01/04 12:44:06;;;;;;;0.50;0.40;;;16.40;1.40;;;17.31;75.93;93449.30;619969;222;32250;-78
2022/01/04 12:46:51;;;;;;;0.50;0.30;;;16.40;1.40;;;17.35;74.21;93443.11;618953;222;32002;-79
2022/01/04 12:49:35;;;;;;;0.47;0.30;;;16.60;1.40;;;17.24;75.53;93431.66;646395;213;31503;-76